Time;durP1;ratioP1;P1;durP2;ratioP2;P2;SDS_P1;SDS_P2;PMS_P1;PMS_P2;Temp;Humidity;BMP_temperature;BMP_pressure;BME280_temperature;BME280_humidity;BME280_pressure;Samples;Min_cycle;Max_cycle;Signal;HPM_P1;HPM_P2
2022/03/04 00:02:12;;;;;;;18.15;11.50;;;;;;;4.78;50.66;101671.47;3585604;40;20068;-62
2022/03/04 00:04:38;;;;;;;16.85;11.50;;;;;;;4.74;50.94;101671.59;3578016;40;20145;-62
2022/03/04 00:07:07;;;;;;;20.92;12.52;;;;;;;4.73;51.17;101678.69;3585325;40;20399;-62
2022/03/04 00:09:34;;;;;;;22.23;11.52;;;;;;;4.00;51.14;101563.31;3587404;40;20125;-62
2022/03/04 00:12:07;;;;;;;20.70;12.18;;;;;;;4.71;50.55;101687.63;3585611;40;20047;-62
2022/03/04 00:14:33;;;;;;;21.15;12.25;;;;;;;4.71;50.49;101693.84;3585428;39;20045;-62
2022/03/04 00:16:59;;;;;;;18.38;11.30;;;;;;;4.67;51.58;101689.50;3587798;39;20066;-62
2022/03/04 00:19:25;;;;;;;21.75;12.40;;;;;;;4.64;51.72;101694.91;3588889;39;20593;-63
2022/03/04 00:21:51;;;;;;;18.55;11.68;;;;;;;4.37;51.19;101649.34;3587716;39;20055;-62
2022/03/04 00:24:20;;;;;;;22.63;11.77;;;;;;;4.59;51.08;101696.78;3586188;39;20303;-62
2022/03/04 00:26:47;;;;;;;20.20;11.95;;;;;;;4.52;51.38;101693.38;3586162;39;20133;-62
2022/03/04 00:29:15;;;;;;;17.30;11.90;;;;;;;4.54;51.40;101694.22;3585129;39;20070;-62
2022/03/04 00:31:41;;;;;;;20.60;12.32;;;;;;;4.52;52.22;101695.19;3588108;39;20074;-61
2022/03/04 00:34:08;;;;;;;21.45;12.68;;;;;;;4.50;51.68;101696.97;3585024;39;20056;-62
2022/03/04 00:36:39;;;;;;;21.33;12.60;;;;;;;4.46;52.11;101701.50;3585003;39;20056;-62
2022/03/04 00:39:12;;;;;;;18.55;12.30;;;;;;;4.41;52.73;101698.09;3588977;39;20065;-62
2022/03/04 00:41:38;;;;;;;16.58;11.60;;;;;;;4.38;51.93;101700.81;3577505;39;20052;-62
2022/03/04 00:44:05;;;;;;;19.70;12.82;;;;;;;4.35;52.47;101709.75;3586573;39;20068;-62
2022/03/04 00:46:31;;;;;;;20.60;12.43;;;;;;;4.31;52.67;101707.16;3585967;39;20059;-62
2022/03/04 00:48:56;;;;;;;22.23;11.43;;;;;;;4.28;53.20;101707.22;3589638;39;20048;-62
2022/03/04 00:51:22;;;;;;;19.52;12.50;;;;;;;4.22;53.07;101702.03;3585025;39;20049;-62
2022/03/04 00:53:48;;;;;;;21.70;13.10;;;;;;;4.17;52.86;101705.69;3585203;39;20306;-61
2022/03/04 00:56:13;;;;;;;21.27;13.10;;;;;;;4.12;53.01;101704.91;3588340;39;20052;-62
2022/03/04 00:58:40;;;;;;;20.85;13.25;;;;;;;4.09;52.75;101702.31;3585343;39;20055;-62
2022/03/04 01:01:07;;;;;;;19.48;12.25;;;;;;;4.02;53.98;101702.47;3585116;39;20072;-62
2022/03/04 01:03:34;;;;;;;21.83;12.70;;;;;;;4.00;53.89;101706.97;3585005;39;20048;-62
2022/03/04 01:06:02;;;;;;;20.30;12.77;;;;;;;3.90;54.46;101709.81;3586903;39;20063;-62
2022/03/04 01:08:28;;;;;;;22.08;12.93;;;;;;;3.86;54.23;101715.19;3588301;39;20084;-62
2022/03/04 01:10:54;;;;;;;24.00;12.88;;;;;;;3.80;53.74;101710.88;3586255;39;20048;-62
2022/03/04 01:13:22;;;;;;;20.48;12.73;;;;;;;3.71;54.05;101711.03;3584997;39;20268;-62
2022/03/04 01:15:49;;;;;;;20.40;13.07;;;;;;;3.68;54.61;101721.75;3587789;39;20071;-62
2022/03/04 01:18:16;;;;;;;21.85;13.40;;;;;;;3.62;54.75;101716.56;3586490;39;20056;-62
2022/03/04 01:20:43;;;;;;;21.23;13.93;;;;;;;3.55;55.03;101714.91;3585850;39;20082;-62
2022/03/04 01:23:08;;;;;;;22.55;13.65;;;;;;;3.45;55.98;101701.78;3584692;39;20058;-62
2022/03/04 01:25:34;;;;;;;20.95;13.15;;;;;;;3.44;56.78;101712.44;3589591;40;20064;-62
2022/03/04 01:28:01;;;;;;;24.65;14.68;;;;;;;3.14;56.54;101666.03;3583747;40;20075;-62
2022/03/04 01:30:27;;;;;;;21.98;13.48;;;;;;;3.36;55.89;101709.03;3587155;40;20055;-62
2022/03/04 01:32:53;;;;;;;21.08;13.55;;;;;;;3.32;55.72;101708.22;3585635;39;20299;-62
2022/03/04 01:35:18;;;;;;;21.35;13.57;;;;;;;3.21;55.93;101692.47;3587292;39;20413;-62
2022/03/04 01:37:44;;;;;;;20.42;13.35;;;;;;;3.23;56.42;101705.72;3584227;39;20048;-62
2022/03/04 01:40:12;;;;;;;19.70;13.02;;;;;;;3.23;56.81;101705.72;3585337;39;20059;-63
2022/03/04 01:42:38;;;;;;;23.38;14.88;;;;;;;3.19;56.87;101704.03;3575308;39;20052;-62
2022/03/04 01:45:09;;;;;;;23.17;13.75;;;;;;;3.15;57.56;101699.69;3587899;39;20438;-62
2022/03/04 01:47:39;;;;;;;21.77;12.98;;;;;;;3.10;57.00;101698.88;3588579;39;20064;-62
2022/03/04 01:50:06;;;;;;;20.33;12.93;;;;;;;3.00;57.51;101685.75;3586552;39;20060;-62
2022/03/04 01:52:32;;;;;;;20.83;13.45;;;;;;;2.90;57.15;101684.16;3587543;39;20063;-62
2022/03/04 01:54:57;;;;;;;27.73;13.82;;;;;;;2.95;58.38;101692.94;3588638;39;20052;-62
2022/03/04 01:57:23;;;;;;;21.10;14.57;;;;;;;2.75;58.14;101671.97;3585087;39;20056;-62
2022/03/04 01:59:49;;;;;;;24.05;14.40;;;;;;;2.64;58.59;101663.34;3586509;39;20125;-62
2022/03/04 02:02:14;;;;;;;22.35;14.38;;;;;;;2.76;58.55;101692.34;3589191;39;20048;-62
2022/03/04 02:04:40;;;;;;;21.75;14.57;;;;;;;2.65;58.76;101698.72;3588648;39;20048;-62
2022/03/04 02:07:06;;;;;;;23.95;14.73;;;;;;;2.68;59.66;101710.16;3589792;39;20105;-62
2022/03/04 02:09:31;;;;;;;27.40;15.13;;;;;;;2.65;59.29;101709.31;3588645;39;20048;-62
2022/03/04 02:11:57;;;;;;;24.98;14.82;;;;;;;2.59;58.87;101706.75;3585371;39;20051;-62
2022/03/04 02:14:23;;;;;;;23.45;14.80;;;;;;;2.56;59.21;101713.84;3579498;40;20060;-63
2022/03/04 02:16:53;;;;;;;23.95;15.27;;;;;;;2.47;60.13;101706.03;3590441;39;20415;-62
2022/03/04 02:19:20;;;;;;;24.30;15.40;;;;;;;2.40;59.87;101701.72;3586055;39;20082;-62
2022/03/04 02:22:00;;;;;;;25.70;15.32;;;;;;;2.45;59.21;101702.53;3586390;39;20044;-62
2022/03/04 02:24:29;;;;;;;28.83;15.77;;;;;;;2.46;58.69;101703.41;3587960;40;20085;-62
2022/03/04 02:26:59;;;;;;;25.67;16.40;;;;;;;2.41;59.52;101690.22;3585113;40;20056;-62
2022/03/04 02:29:26;;;;;;;25.38;16.40;;;;;;;2.49;59.27;101706.88;3584744;40;20391;-63
2022/03/04 02:31:53;;;;;;;25.55;15.65;;;;;;;2.47;59.73;101692.75;3584562;40;20125;-62
2022/03/04 02:34:21;;;;;;;23.25;15.52;;;;;;;2.49;59.45;101692.75;3585716;39;20047;-63
2022/03/04 02:36:48;;;;;;;26.25;15.60;;;;;;;2.49;59.69;101696.28;3585966;39;20119;-63
2022/03/04 02:39:15;;;;;;;23.38;16.00;;;;;;;2.32;58.95;101655.84;3588208;39;20067;-63
2022/03/04 02:41:40;;;;;;;22.42;15.02;;;;;;;2.51;59.60;101688.31;3586203;39;20048;-63
2022/03/04 02:44:10;;;;;;;21.92;15.15;;;;;;;2.29;58.95;101658.56;3585076;40;20059;-63
2022/03/04 02:46:36;;;;;;;25.38;16.48;;;;;;;2.42;59.92;101685.78;3585573;39;20062;-63
2022/03/04 02:49:04;;;;;;;27.10;15.50;;;;;;;2.43;59.41;101688.41;3589196;39;20055;-63
2022/03/04 02:51:30;;;;;;;26.60;15.75;;;;;;;2.43;59.78;101682.22;3588923;39;20116;-63
2022/03/04 02:53:56;;;;;;;24.67;15.45;;;;;;;2.30;58.65;101662.94;3588035;39;20382;-63
2022/03/04 02:56:21;;;;;;;23.63;16.00;;;;;;;2.35;58.97;101681.44;3587197;39;20056;-64
2022/03/04 02:58:47;;;;;;;26.08;16.80;;;;;;;2.00;59.51;101628.00;3625572;22;20055;-64
2022/03/04 03:01:13;;;;;;;28.60;15.98;;;;;;;2.30;60.02;101681.53;3587553;40;20052;-62
2022/03/04 03:03:39;;;;;;;25.23;16.73;;;;;;;2.28;60.55;101684.22;3579049;40;20088;-63
2022/03/04 03:06:06;;;;;;;25.33;16.42;;;;;;;2.23;59.43;101682.50;3591181;40;20094;-62
2022/03/04 03:08:32;;;;;;;27.75;16.67;;;;;;;2.22;59.30;101684.28;3585120;40;20064;-63
2022/03/04 03:10:58;;;;;;;25.88;16.60;;;;;;;2.21;60.13;101676.34;3591480;40;20048;-63
2022/03/04 03:13:24;;;;;;;27.02;16.75;;;;;;;2.18;59.59;101676.38;3590307;40;20055;-62
2022/03/04 03:15:50;;;;;;;26.85;15.88;;;;;;;2.17;60.07;101680.81;3586019;40;20105;-64
2022/03/04 03:18:17;;;;;;;25.42;16.25;;;;;;;2.20;60.77;101679.91;3590496;40;20284;-62
2022/03/04 03:20:43;;;;;;;27.10;15.57;;;;;;;2.11;59.40;101674.72;3585368;40;20052;-62
2022/03/04 03:23:10;;;;;;;26.38;16.45;;;;;;;2.14;60.13;101672.91;3591850;40;20063;-62
2022/03/04 03:25:36;;;;;;;25.63;15.75;;;;;;;2.12;59.73;101681.75;3587265;40;20048;-62
2022/03/04 03:28:03;;;;;;;29.23;17.40;;;;;;;2.09;59.94;101680.94;3587213;40;20700;-62
2022/03/04 03:30:29;;;;;;;28.58;17.27;;;;;;;2.06;60.80;101678.31;3587166;40;20059;-62
2022/03/04 03:32:55;;;;;;;28.02;17.10;;;;;;;2.07;60.87;101674.75;3586176;40;20048;-63
2022/03/04 03:35:22;;;;;;;25.10;15.90;;;;;;;1.94;61.12;101657.25;3587891;40;20059;-63
2022/03/04 03:37:47;;;;;;;29.58;17.05;;;;;;;2.04;60.09;101685.41;3586706;40;20305;-63
2022/03/04 03:40:15;;;;;;;28.40;16.83;;;;;;;2.01;60.31;101685.44;3584729;40;20055;-63
2022/03/04 03:42:41;;;;;;;25.67;15.77;;;;;;;1.90;61.54;101673.19;3586334;40;20064;-63
2022/03/04 03:45:10;;;;;;;25.90;15.85;;;;;;;1.99;61.74;101697.81;3586713;40;20063;-62
2022/03/04 03:47:38;;;;;;;25.48;16.30;;;;;;;1.97;60.84;101694.34;3587913;40;20140;-65
2022/03/04 03:50:09;;;;;;;24.45;15.80;;;;;;;1.96;61.88;101687.25;3585246;40;20092;-61
2022/03/04 03:52:36;;;;;;;27.05;16.17;;;;;;;1.83;61.30;101659.16;3589534;40;20381;-63
2022/03/04 03:55:04;;;;;;;27.70;15.90;;;;;;;1.95;60.58;101685.50;3587330;40;21248;-63
2022/03/04 03:57:30;;;;;;;29.08;16.55;;;;;;;1.95;61.34;101685.50;3586800;40;20324;-64
2022/03/04 03:59:56;;;;;;;26.70;15.85;;;;;;;1.93;62.08;101689.94;3586427;40;20056;-63
2022/03/04 04:02:21;;;;;;;27.40;16.45;;;;;;;1.92;61.88;101680.25;3593171;40;20085;-63
2022/03/04 04:04:47;;;;;;;24.15;15.57;;;;;;;1.92;62.06;101689.97;3587558;40;20044;-63
2022/03/04 04:07:13;;;;;;;26.83;16.42;;;;;;;1.92;61.83;101696.16;3588240;40;20044;-62
2022/03/04 04:09:39;;;;;;;27.27;16.05;;;;;;;1.92;61.87;101697.94;3594118;40;20293;-64
2022/03/04 04:12:06;;;;;;;29.40;17.60;;;;;;;1.92;61.35;101693.50;3587568;40;20055;-62
2022/03/04 04:14:33;;;;;;;27.60;16.67;;;;;;;1.87;60.26;101687.38;3588223;40;20056;-62
2022/03/04 04:16:58;;;;;;;28.73;17.67;;;;;;;1.90;61.60;101697.06;3589167;40;20075;-63
2022/03/04 04:19:25;;;;;;;25.20;16.42;;;;;;;1.89;61.23;101701.50;3589851;40;20302;-64
2022/03/04 04:21:52;;;;;;;30.42;17.38;;;;;;;1.87;61.64;101697.97;3587329;40;20087;-62
2022/03/04 04:24:18;;;;;;;25.42;16.33;;;;;;;1.88;61.54;101714.78;3587036;40;20048;-63
2022/03/04 04:26:46;;;;;;;25.55;16.17;;;;;;;1.81;61.23;101692.78;3588586;40;20044;-62
2022/03/04 04:29:12;;;;;;;29.08;16.92;;;;;;;1.84;61.18;101696.25;3584801;40;20056;-62
2022/03/04 04:31:40;;;;;;;26.70;16.50;;;;;;;1.73;61.22;101678.72;3585292;40;20597;-62
2022/03/04 04:34:05;;;;;;;29.08;16.67;;;;;;;1.87;61.37;101711.22;3587467;40;20119;-62
2022/03/04 04:36:31;;;;;;;30.35;17.13;;;;;;;1.85;61.05;101711.25;3592462;40;20052;-63
2022/03/04 04:38:57;;;;;;;26.88;16.35;;;;;;;1.86;61.51;101717.44;3584424;40;20060;-63
2022/03/04 04:41:24;;;;;;;24.67;16.20;;;;;;;1.89;61.31;101713.88;3587351;39;20055;-63
2022/03/04 04:43:50;;;;;;;24.15;16.23;;;;;;;1.75;61.44;101682.25;3588154;40;20087;-62
2022/03/04 04:46:15;;;;;;;27.52;17.33;;;;;;;1.95;60.42;101717.31;3587272;40;20041;-63
2022/03/04 04:48:41;;;;;;;25.90;16.55;;;;;;;1.97;60.31;101722.63;3584442;40;20048;-63
2022/03/04 04:51:07;;;;;;;26.33;17.08;;;;;;;1.99;60.00;101720.81;3587285;40;20071;-63
2022/03/04 04:53:35;;;;;;;29.25;17.48;;;;;;;1.99;59.94;101713.72;3588221;40;20059;-63
2022/03/04 04:56:01;;;;;;;27.05;16.55;;;;;;;1.99;61.55;101716.38;3588827;40;20125;-63
2022/03/04 04:58:27;;;;;;;26.88;16.63;;;;;;;1.81;60.13;101692.78;3583654;40;20063;-63
2022/03/04 05:00:53;;;;;;;28.27;17.83;;;;;;;1.99;61.30;101716.38;3590618;39;20648;-63
2022/03/04 05:03:24;;;;;;;26.20;15.95;;;;;;;2.00;60.41;101720.81;3584519;40;20083;-63
2022/03/04 05:05:52;;;;;;;27.58;17.42;;;;;;;2.00;60.61;101712.84;3586464;40;20044;-63
2022/03/04 05:08:18;;;;;;;35.65;21.35;;;;;;;1.80;60.50;101681.25;3583813;40;20056;-62
2022/03/04 05:10:45;;;;;;;32.78;19.23;;;;;;;1.93;61.27;101708.50;3587181;40;20141;-62
2022/03/04 05:13:11;;;;;;;27.70;16.83;;;;;;;1.94;60.99;101709.41;3589179;40;20122;-63
2022/03/04 05:15:38;;;;;;;27.13;16.38;;;;;;;1.72;60.90;101671.66;3587037;40;20060;-61
2022/03/04 05:18:03;;;;;;;30.45;17.52;;;;;;;1.90;61.58;101708.53;3589057;40;20367;-62
2022/03/04 05:20:30;;;;;;;28.33;16.30;;;;;;;1.89;61.70;101706.78;3584889;40;20052;-62
2022/03/04 05:22:55;;;;;;;27.65;16.52;;;;;;;1.87;60.82;101713.88;3586491;40;20145;-62
2022/03/04 05:25:21;;;;;;;24.90;16.08;;;;;;;1.83;61.25;101707.72;3588096;40;20048;-63
2022/03/04 05:27:47;;;;;;;28.23;16.30;;;;;;;1.85;60.67;101715.69;3589919;40;20063;-63
2022/03/04 05:30:13;;;;;;;25.27;16.55;;;;;;;1.84;61.76;101720.13;3588883;40;20057;-63
2022/03/04 05:32:39;;;;;;;26.13;16.10;;;;;;;1.72;61.43;101703.47;3590415;40;20048;-63
2022/03/04 05:35:06;;;;;;;33.30;16.83;;;;;;;1.78;61.89;101714.00;3592409;40;20125;-63
2022/03/04 05:37:32;;;;;;;30.33;16.60;;;;;;;1.80;60.92;101718.38;3585184;40;20059;-63
2022/03/04 05:39:58;;;;;;;29.60;16.90;;;;;;;1.72;60.90;101708.78;3589432;40;20426;-63
2022/03/04 05:42:25;;;;;;;28.10;16.73;;;;;;;1.78;61.99;101720.19;3587886;40;20137;-63
2022/03/04 05:44:51;;;;;;;33.58;17.17;;;;;;;1.78;61.00;101725.47;3591257;40;20074;-63
2022/03/04 05:47:17;;;;;;;27.95;16.52;;;;;;;1.76;61.21;101724.63;3585749;40;20052;-63
2022/03/04 05:49:42;;;;;;;27.40;17.20;;;;;;;1.75;61.79;101735.25;3586985;40;20052;-63
2022/03/04 05:52:08;;;;;;;28.73;15.55;;;;;;;1.65;61.53;101722.97;3589398;40;20052;-63
2022/03/04 05:54:34;;;;;;;27.20;16.75;;;;;;;1.75;61.24;101745.84;3588717;40;21868;-63
2022/03/04 05:56:59;;;;;;;25.30;15.60;;;;;;;1.74;60.49;101746.72;3589746;40;20107;-63
2022/03/04 05:59:25;;;;;;;26.13;16.17;;;;;;;1.73;60.80;101752.94;3588642;40;20051;-63
2022/03/04 06:01:51;;;;;;;29.48;16.60;;;;;;;1.60;60.96;101726.53;3590360;40;20056;-63
2022/03/04 06:04:17;;;;;;;27.92;16.42;;;;;;;1.55;60.74;101715.09;3589443;40;20048;-62
2022/03/04 06:06:43;;;;;;;33.00;16.65;;;;;;;1.63;61.12;101737.13;3588755;40;20047;-62
2022/03/04 06:09:09;;;;;;;27.23;17.38;;;;;;;1.72;61.10;101761.78;3581973;40;20058;-62
2022/03/04 06:11:35;;;;;;;31.75;17.40;;;;;;;1.68;61.43;101757.38;3590952;40;20049;-61
2022/03/04 06:14:01;;;;;;;27.08;16.83;;;;;;;1.68;61.48;101760.03;3580249;40;20317;-61
2022/03/04 06:16:26;;;;;;;29.17;17.23;;;;;;;1.63;61.05;101760.97;3582932;40;20138;-62
2022/03/04 06:18:52;;;;;;;30.10;17.40;;;;;;;1.60;61.24;101755.69;3591275;40;20070;-62
2022/03/04 06:21:18;;;;;;;28.30;17.35;;;;;;;1.56;61.60;101751.34;3589325;40;20411;-61
2022/03/04 06:23:44;;;;;;;31.70;17.27;;;;;;;1.54;62.78;101769.00;3588514;40;20066;-61
2022/03/04 06:26:10;;;;;;;30.15;17.98;;;;;;;1.55;61.72;101765.44;3590839;40;20059;-62
2022/03/04 06:28:36;;;;;;;29.40;17.85;;;;;;;1.56;61.67;101769.00;3587226;40;20142;-62
2022/03/04 06:31:03;;;;;;;28.90;17.52;;;;;;;1.48;62.48;101762.88;3586422;40;20403;-61
2022/03/04 06:33:36;;;;;;;31.85;18.58;;;;;;;1.57;61.74;101771.63;3587275;40;20052;-62
2022/03/04 06:36:13;;;;;;;30.35;17.27;;;;;;;1.49;61.87;101754.03;3589106;40;20177;-63
2022/03/04 06:38:42;;;;;;;30.45;17.30;;;;;;;1.44;61.95;101753.22;3588275;40;20048;-61
2022/03/04 06:41:11;;;;;;;30.23;17.95;;;;;;;1.58;62.32;101776.03;3588885;40;20056;-61
2022/03/04 06:43:38;;;;;;;27.35;17.25;;;;;;;1.59;62.79;101772.50;3588360;40;20401;-61
2022/03/04 06:46:04;;;;;;;27.10;17.02;;;;;;;1.59;63.08;101777.81;3589250;40;20052;-61
2022/03/04 06:48:30;;;;;;;29.05;18.05;;;;;;;1.64;61.50;101769.78;3587161;40;20374;-61
2022/03/04 06:50:56;;;;;;;30.20;17.45;;;;;;;1.66;61.89;101772.44;3576535;40;20044;-61
2022/03/04 06:53:24;;;;;;;30.35;18.38;;;;;;;1.74;61.77;101776.75;3590406;40;20106;-62
2022/03/04 06:55:50;;;;;;;28.90;18.50;;;;;;;1.86;62.15;101784.56;3587572;40;20084;-63
2022/03/04 06:58:16;;;;;;;27.00;17.40;;;;;;;1.98;61.06;101772.97;3588757;40;20327;-62
2022/03/04 07:00:42;;;;;;;29.27;17.63;;;;;;;2.16;60.41;101786.91;3591048;40;20108;-62
2022/03/04 07:03:08;;;;;;;29.90;18.10;;;;;;;2.30;60.28;101790.28;3586670;40;20056;-62
2022/03/04 07:05:35;;;;;;;29.30;16.77;;;;;;;2.44;60.52;101787.44;3588221;40;20306;-62
2022/03/04 07:08:01;;;;;;;28.05;16.65;;;;;;;2.71;59.66;101805.69;3585304;40;20068;-62
2022/03/04 07:10:27;;;;;;;32.80;18.17;;;;;;;2.97;58.87;101810.63;3586984;40;20055;-62
2022/03/04 07:12:53;;;;;;;28.60;17.65;;;;;;;3.16;57.25;101811.22;3588678;40;20055;-62
2022/03/04 07:15:20;;;;;;;31.75;18.17;;;;;;;3.27;57.62;101819.03;3588177;40;20051;-61
2022/03/04 07:17:47;;;;;;;29.40;17.05;;;;;;;3.33;56.94;101824.25;3588731;40;20058;-62
2022/03/04 07:20:14;;;;;;;29.17;17.55;;;;;;;3.35;56.42;101816.25;3590983;40;20523;-61
2022/03/04 07:22:42;;;;;;;28.00;17.63;;;;;;;3.34;55.98;101806.53;3587479;40;20121;-62
2022/03/04 07:25:12;;;;;;;28.67;17.13;;;;;;;3.57;57.02;101835.38;3588406;40;20060;-62
2022/03/04 07:27:39;;;;;;;27.60;17.05;;;;;;;3.69;56.21;101824.53;3589415;40;20062;-62
2022/03/04 07:30:14;;;;;;;30.58;17.95;;;;;;;3.83;55.59;101827.81;3588557;40;20302;-62
2022/03/04 07:32:43;;;;;;;27.95;17.10;;;;;;;3.90;55.91;101824.19;3588971;40;20407;-63
2022/03/04 07:35:11;;;;;;;32.25;18.05;;;;;;;4.03;55.37;101823.91;3589792;40;20060;-61
2022/03/04 07:37:39;;;;;;;29.67;18.40;;;;;;;4.02;55.65;101796.44;3588888;40;20063;-61
2022/03/04 07:40:08;;;;;;;30.17;18.35;;;;;;;4.34;54.18;101817.09;3589010;40;20053;-62
2022/03/04 07:42:34;;;;;;;27.38;16.55;;;;;;;4.58;53.53;101817.53;3588551;40;20056;-62
2022/03/04 07:44:59;;;;;;;26.05;17.15;;;;;;;4.80;52.74;101824.13;3589298;40;20052;-62
2022/03/04 07:47:26;;;;;;;28.70;17.40;;;;;;;4.99;51.73;101810.41;3589057;40;20078;-62
2022/03/04 07:49:51;;;;;;;33.58;17.38;;;;;;;5.30;51.42;101816.78;3590869;40;20125;-62
2022/03/04 07:52:17;;;;;;;27.85;16.23;;;;;;;5.48;50.68;101818.09;3587955;40;20047;-62
2022/03/04 07:54:43;;;;;;;32.47;17.25;;;;;;;5.84;50.52;101814.56;3588231;40;20043;-61
2022/03/04 07:57:10;;;;;;;31.58;17.50;;;;;;;5.96;50.36;101808.91;3589447;40;20071;-62
2022/03/04 07:59:36;;;;;;;33.88;18.58;;;;;;;6.12;49.04;101815.59;3587800;40;20048;-62
2022/03/04 08:02:01;;;;;;;29.58;17.40;;;;;;;6.44;49.30;101819.16;3589407;40;20056;-63
2022/03/04 08:04:27;;;;;;;28.30;16.98;;;;;;;6.56;48.20;101784.06;3588631;40;20052;-62
2022/03/04 08:06:53;;;;;;;25.77;17.17;;;;;;;6.91;46.92;101827.53;3591676;40;20052;-62
2022/03/04 08:09:19;;;;;;;32.00;17.75;;;;;;;7.18;47.03;101821.34;3590056;40;20448;-61
2022/03/04 08:11:46;;;;;;;27.60;17.58;;;;;;;7.46;45.73;101827.63;3587840;40;20052;-62
2022/03/04 08:14:12;;;;;;;28.25;17.38;;;;;;;7.66;46.00;101823.34;3586672;40;21389;-62
2022/03/04 08:16:38;;;;;;;29.00;17.00;;;;;;;7.91;45.25;101828.72;3586553;40;20056;-62
2022/03/04 08:19:05;;;;;;;25.08;16.38;;;;;;;8.12;44.68;101824.44;3589270;40;20101;-62
2022/03/04 08:21:31;;;;;;;28.33;16.67;;;;;;;8.18;44.32;101819.78;3586230;40;20052;-62
2022/03/04 08:23:56;;;;;;;27.00;16.98;;;;;;;8.32;43.57;101825.53;3587585;40;20314;-63
2022/03/04 08:26:22;;;;;;;26.02;17.55;;;;;;;8.39;42.96;101824.38;3588345;40;20063;-63
2022/03/04 08:28:48;;;;;;;28.50;18.17;;;;;;;8.41;43.36;101827.91;3588521;40;20448;-62
2022/03/04 08:31:14;;;;;;;29.42;17.73;;;;;;;8.52;43.34;101836.41;3586674;40;20064;-63
2022/03/04 08:33:43;;;;;;;29.25;17.85;;;;;;;8.65;42.80;101830.59;3586359;40;20049;-63
2022/03/04 08:36:10;;;;;;;28.98;17.15;;;;;;;8.71;41.54;101820.50;3586043;40;20070;-63
2022/03/04 08:38:36;;;;;;;27.00;16.90;;;;;;;8.73;41.96;101833.88;3588212;40;20060;-62
2022/03/04 08:41:02;;;;;;;24.13;16.58;;;;;;;8.85;43.13;101838.75;3590024;40;20055;-62
2022/03/04 08:43:28;;;;;;;28.48;17.63;;;;;;;9.15;41.40;101841.16;3589625;40;20056;-62
2022/03/04 08:45:54;;;;;;;24.45;16.55;;;;;;;9.18;41.40;101843.72;3592380;40;20091;-65
2022/03/04 08:48:19;;;;;;;28.15;18.40;;;;;;;9.26;40.96;101838.91;3589468;40;20374;-63
2022/03/04 08:50:45;;;;;;;31.20;19.73;;;;;;;9.29;41.18;101828.06;3590927;40;20068;-63
2022/03/04 08:53:10;;;;;;;31.27;18.38;;;;;;;9.51;39.77;101853.13;3588671;40;21124;-64
2022/03/04 08:55:36;;;;;;;24.38;17.65;;;;;;;9.62;39.20;101860.72;3589009;40;20052;-63
2022/03/04 08:58:02;;;;;;;25.88;17.20;;;;;;;9.16;39.81;101762.44;3624692;22;20457;-65
2022/03/04 09:00:28;;;;;;;32.50;17.40;;;;;;;9.70;39.87;101855.00;3585288;40;20056;-65
2022/03/04 09:02:55;;;;;;;28.80;16.98;;;;;;;9.59;39.36;101841.19;3586005;40;20044;-65
2022/03/04 09:05:21;;;;;;;25.90;17.55;;;;;;;9.59;39.40;101819.72;3586847;40;20044;-65
2022/03/04 09:07:47;;;;;;;23.83;16.80;;;;;;;9.87;39.99;101847.13;3587096;39;20426;-65
2022/03/04 09:10:13;;;;;;;25.92;17.13;;;;;;;9.99;38.52;101846.63;3585530;39;20064;-65
2022/03/04 09:12:39;;;;;;;28.92;17.05;;;;;;;10.05;38.69;101858.03;3589364;39;20064;-65
2022/03/04 09:15:07;;;;;;;22.55;16.88;;;;;;;9.97;39.19;101847.63;3592400;39;20096;-65
2022/03/04 09:17:33;;;;;;;25.25;16.75;;;;;;;10.03;38.75;101859.91;3588766;39;20055;-65
2022/03/04 09:19:58;;;;;;;29.15;17.30;;;;;;;10.06;38.43;101860.66;3587926;39;20059;-65
2022/03/04 09:22:25;;;;;;;26.02;16.88;;;;;;;10.04;38.65;101843.72;3587515;39;20057;-65
2022/03/04 09:24:51;;;;;;;27.13;16.40;;;;;;;10.15;39.99;101852.19;3580604;39;20048;-64
2022/03/04 09:27:17;;;;;;;25.65;16.63;;;;;;;10.43;38.41;101851.88;3592642;39;20338;-65
2022/03/04 09:29:43;;;;;;;24.98;17.40;;;;;;;10.67;38.09;101839.13;3592732;39;20049;-64
2022/03/04 09:32:08;;;;;;;26.55;17.60;;;;;;;10.96;37.78;101844.09;3592725;39;20064;-64
2022/03/04 09:34:34;;;;;;;26.40;16.85;;;;;;;10.90;37.73;101829.13;3592049;39;20071;-65
2022/03/04 09:37:00;;;;;;;26.77;17.05;;;;;;;11.12;36.99;101843.28;3590339;39;20369;-64
2022/03/04 09:39:25;;;;;;;26.65;16.38;;;;;;;11.06;36.96;101813.97;3585681;40;20353;-65
2022/03/04 09:41:51;;;;;;;25.33;17.40;;;;;;;11.08;36.98;101827.38;3585840;40;20425;-64
2022/03/04 09:44:17;;;;;;;23.85;17.15;;;;;;;11.23;36.74;101840.09;3585842;40;20126;-65
2022/03/04 09:46:44;;;;;;;27.73;19.10;;;;;;;11.35;36.94;101828.75;3585545;40;20086;-64
2022/03/04 09:49:15;;;;;;;27.02;18.73;;;;;;;11.54;36.41;101833.19;3583901;40;20405;-66
2022/03/04 09:51:41;;;;;;;22.42;16.90;;;;;;;11.64;36.42;101823.72;3575017;39;20472;-66
2022/03/04 09:54:06;;;;;;;24.75;17.63;;;;;;;11.92;36.02;101835.81;3585193;39;20072;-64
2022/03/04 09:56:32;;;;;;;26.42;17.70;;;;;;;12.02;35.57;101840.66;3585344;39;20056;-65
2022/03/04 09:58:57;;;;;;;26.90;17.05;;;;;;;12.29;35.81;101835.63;3579031;39;20099;-64
2022/03/04 10:01:23;;;;;;;24.38;17.02;;;;;;;12.42;34.90;101835.00;3584908;39;20056;-64
2022/03/04 10:03:55;;;;;;;25.55;16.98;;;;;;;12.44;35.37;101830.41;3584803;39;20048;-64
2022/03/04 10:06:22;;;;;;;23.85;17.25;;;;;;;12.61;34.87;101826.78;3587482;39;20075;-64
2022/03/04 10:08:51;;;;;;;38.13;26.27;;;;;;;12.80;34.82;101834.75;3585872;39;20056;-65
2022/03/04 10:11:25;;;;;;;36.97;26.35;;;;;;;12.90;34.57;101835.97;3588300;39;20075;-66
2022/03/04 10:14:00;;;;;;;28.13;18.90;;;;;;;13.08;34.11;101834.94;3589677;39;20048;-64
2022/03/04 10:16:36;;;;;;;24.00;18.08;;;;;;;13.30;34.40;101829.25;3589640;39;20088;-64
2022/03/04 10:19:17;;;;;;;26.10;17.70;;;;;;;13.44;33.65;101841.94;3587135;39;20306;-64
2022/03/04 10:22:05;;;;;;;24.85;17.52;;;;;;;13.35;32.57;101792.06;3587830;39;20391;-64
2022/03/04 10:24:39;;;;;;;24.55;17.23;;;;;;;13.76;31.81;101847.28;3587519;39;20045;-64
2022/03/04 10:27:12;;;;;;;23.75;16.42;;;;;;;13.75;32.41;101845.56;3587224;39;20109;-65
2022/03/04 10:29:44;;;;;;;23.10;16.65;;;;;;;13.72;31.72;101846.59;3587603;39;20056;-64
2022/03/04 10:32:24;;;;;;;22.52;17.00;;;;;;;13.60;32.77;101855.44;3587498;39;20119;-64
2022/03/04 10:35:03;;;;;;;23.88;17.13;;;;;;;13.66;32.96;101845.13;3588092;39;20047;-65
2022/03/04 10:37:56;;;;;;;21.48;15.52;;;;;;;13.63;32.02;101842.59;3586596;39;20049;-65
2022/03/04 10:40:49;;;;;;;22.73;16.73;;;;;;;13.69;32.00;101849.50;3579678;40;20051;-65
2022/03/04 10:43:24;;;;;;;23.00;16.75;;;;;;;13.68;32.09;101843.22;3583192;40;20051;-65
2022/03/04 10:46:03;;;;;;;21.80;15.98;;;;;;;13.53;32.50;101792.78;3586508;39;20048;-64
2022/03/04 10:48:30;;;;;;;23.45;16.83;;;;;;;13.99;33.53;101844.13;3585182;39;20054;-64
2022/03/04 10:51:04;;;;;;;22.98;16.02;;;;;;;14.17;33.05;101837.56;3588069;39;20091;-64
2022/03/04 10:53:33;;;;;;;22.20;16.75;;;;;;;14.36;31.36;101828.34;3586657;39;20057;-64
2022/03/04 10:56:02;;;;;;;22.58;15.70;;;;;;;14.43;31.98;101832.44;3584961;40;20066;-64
2022/03/04 10:58:40;;;;;;;22.35;16.00;;;;;;;14.35;31.33;101835.59;3587351;39;20063;-64
2022/03/04 11:01:19;;;;;;;23.15;16.27;;;;;;;14.62;31.62;101826.78;3584413;40;20891;-64
2022/03/04 11:03:45;;;;;;;23.10;15.30;;;;;;;14.38;30.52;101732.59;3587032;39;20383;-64
2022/03/04 11:06:14;;;;;;;22.70;16.55;;;;;;;15.06;30.14;101832.06;3587268;39;20066;-64
2022/03/04 11:08:42;;;;;;;22.95;15.68;;;;;;;15.02;29.67;101827.78;3588183;39;20044;-64
2022/03/04 11:11:09;;;;;;;21.85;16.48;;;;;;;14.61;30.84;101733.88;3587067;39;20492;-64
2022/03/04 11:13:37;;;;;;;24.67;16.25;;;;;;;15.19;30.83;101826.72;3589849;39;20048;-64
2022/03/04 11:16:05;;;;;;;20.88;16.05;;;;;;;15.40;30.05;101835.25;3587436;39;20051;-64
2022/03/04 11:18:34;;;;;;;21.35;16.10;;;;;;;15.55;29.65;101823.41;3588935;39;20298;-64